West Bloomfield, New York
Current Conditions -  °F | °C
As of 4:54 PM on Wednesday 22 Oct 2014 (Local Time) from KROC Reporting Station
Overcast Overcast  
Wind Chill: 50°   Ceiling: 2300
Heat Index: 50°   Visibility: 10mi
Dew Point: 41°   Wind: 9mph
Humidity: 71%   Direction: 350°N
Pressure: 30.19"   Gusts: NA
Location:  42.91°N, 77.54°W
Report Text: KROC 222054Z 35008KT 10SM BKN023 OVC028 10/05 A3019 RMK AO2 SLP230 T01000050 57002
Loading
Personal Weather Stations






























Interactive Weather Map
Tropical Storm Tracking
New forecast layout! Learn more

10-Day Weather Forecast

Advertisements
Track Severe Weather on mobile